Time;durP1;ratioP1;P1;durP2;ratioP2;P2;SDS_P1;SDS_P2;PMS_P1;PMS_P2;Temp;Humidity;BMP_temperature;BMP_pressure;BME280_temperature;BME280_humidity;BME280_pressure;Samples;Min_cycle;Max_cycle;Signal;HPM_P1;HPM_P2
2024/04/12 00:01:48;;;;;;;15.15;6.90;;;;;;;9.59;64.41;103014.38;5355454;26;20015;-73
2024/04/12 00:04:16;;;;;;;14.00;7.68;;;;;;;9.98;62.86;103015.19;5359009;26;19999;-72
2024/04/12 00:06:46;;;;;;;20.15;7.30;;;;;;;9.94;63.47;103010.84;5380071;26;20015;-73
2024/04/12 00:09:20;;;;;;;14.32;7.88;;;;;;;9.88;63.66;103006.53;5358898;26;20007;-73
2024/04/12 00:11:48;;;;;;;21.95;7.38;;;;;;;9.99;63.65;103004.75;5350975;26;21158;-74
2024/04/12 00:14:24;;;;;;;15.90;8.20;;;;;;;10.02;63.58;103012.56;5353764;26;20004;-73
2024/04/12 00:16:52;;;;;;;15.73;8.57;;;;;;;9.73;64.82;103002.16;5355784;26;20018;-73
2024/04/12 00:19:25;;;;;;;16.10;7.63;;;;;;;9.98;63.82;102999.50;5381927;26;19995;-72
2024/04/12 00:21:52;;;;;;;21.05;9.23;;;;;;;9.79;64.54;103001.28;5387754;26;21094;-72
2024/04/12 00:24:23;;;;;;;18.63;9.75;;;;;;;9.87;64.55;102996.06;5398049;26;20126;-72
2024/04/12 00:26:51;;;;;;;21.27;9.27;;;;;;;9.56;65.70;102996.09;5389994;26;20026;-72
2024/04/12 00:29:25;;;;;;;23.55;9.52;;;;;;;9.46;65.78;102991.78;5397138;26;20774;-74
2024/04/12 00:31:55;;;;;;;17.75;9.05;;;;;;;9.56;65.50;102980.44;5380073;26;20019;-75
2024/04/12 00:34:26;;;;;;;20.17;9.75;;;;;;;9.79;65.03;102981.28;5355561;26;20012;-75
2024/04/12 00:36:54;;;;;;;19.38;9.27;;;;;;;9.76;64.98;102977.78;5348562;26;20457;-73
2024/04/12 00:39:35;;;;;;;21.08;9.77;;;;;;;9.56;65.38;102981.31;5356348;26;20655;-75
2024/04/12 00:42:08;;;;;;;17.88;9.27;;;;;;;9.48;66.29;102971.78;5363133;26;20018;-80
2024/04/12 00:44:36;;;;;;;22.35;9.50;;;;;;;9.39;66.52;102973.53;5354190;26;21082;-71
2024/04/12 00:47:07;;;;;;;18.60;9.07;;;;;;;9.49;65.93;102963.06;5353194;26;20053;-69
2024/04/12 00:49:36;;;;;;;16.48;8.48;;;;;;;9.68;65.58;102964.75;5354428;26;19999;-69
2024/04/12 00:52:02;;;;;;;18.10;8.57;;;;;;;9.69;65.32;102958.66;5386684;26;20080;-69
2024/04/12 00:54:29;;;;;;;14.93;8.13;;;;;;;9.51;65.79;102964.78;5358719;26;20008;-70
2024/04/12 00:56:58;;;;;;;14.98;7.15;;;;;;;9.65;65.64;102961.28;5320145;26;22483;-69
2024/04/12 00:59:23;;;;;;;14.20;7.20;;;;;;;9.89;64.53;102953.38;5354282;26;20007;-70
2024/04/12 01:01:50;;;;;;;21.65;8.07;;;;;;;9.54;65.74;102945.63;5350418;26;20018;-70
2024/04/12 01:04:20;;;;;;;17.38;8.13;;;;;;;9.37;66.16;102943.94;5357162;26;20007;-74
2024/04/12 01:06:46;;;;;;;18.30;9.02;;;;;;;9.29;66.96;102935.25;5345416;26;20004;-75
2024/04/12 01:09:12;;;;;;;20.70;7.88;;;;;;;9.70;65.07;102942.13;5349800;26;20999;-72
2024/04/12 01:11:40;;;;;;;19.90;7.63;;;;;;;9.44;65.80;102930.88;5323448;26;20011;-74
2024/04/12 01:14:08;;;;;;;23.77;9.60;;;;;;;10.00;64.25;102932.44;5354914;26;20000;-73
2024/04/12 01:16:38;;;;;;;18.65;8.00;;;;;;;10.07;63.78;102931.53;5356188;26;20892;-73
2024/04/12 01:19:05;;;;;;;17.60;8.52;;;;;;;10.11;63.84;102925.44;5353939;26;19996;-73
2024/04/12 01:21:31;;;;;;;17.92;8.50;;;;;;;9.98;64.06;102918.53;5362450;26;20011;-72
2024/04/12 01:23:57;;;;;;;22.67;9.48;;;;;;;9.69;65.40;102918.63;5346561;26;20770;-74
2024/04/12 01:26:23;;;;;;;16.42;7.88;;;;;;;9.56;65.95;102913.44;5361065;26;20054;-73
2024/04/12 01:28:54;;;;;;;18.75;9.20;;;;;;;9.82;64.69;102899.44;5354063;26;20000;-73
2024/04/12 01:31:19;;;;;;;19.13;8.48;;;;;;;9.67;65.40;102910.78;5372170;26;20018;-74
2024/04/12 01:33:50;;;;;;;20.30;8.30;;;;;;;10.06;64.30;102894.97;5354397;26;20814;-74
2024/04/12 01:36:21;;;;;;;18.93;8.70;;;;;;;9.62;65.76;102907.31;5355525;26;20015;-74
2024/04/12 01:38:54;;;;;;;24.63;9.80;;;;;;;9.61;65.64;102903.00;5358459;26;20000;-74
2024/04/12 01:41:27;;;;;;;20.48;9.23;;;;;;;9.75;65.10;102903.78;5354779;26;20490;-74
2024/04/12 01:43:53;;;;;;;24.15;9.65;;;;;;;9.68;65.30;102895.97;5352534;26;19991;-74
2024/04/12 01:46:26;;;;;;;18.33;9.10;;;;;;;9.77;65.10;102895.97;5355656;26;20822;-75
2024/04/12 01:48:52;;;;;;;21.13;9.18;;;;;;;9.84;65.08;102899.44;5346181;26;19996;-73
2024/04/12 01:51:18;;;;;;;24.60;10.48;;;;;;;9.54;65.58;102899.53;5365270;26;20036;-74
2024/04/12 01:53:45;;;;;;;23.63;9.60;;;;;;;10.03;64.24;102898.47;5387428;26;20006;-73
2024/04/12 01:56:14;;;;;;;29.30;10.80;;;;;;;9.82;64.92;102896.84;5413176;26;20042;-73
2024/04/12 01:58:40;;;;;;;16.13;8.25;;;;;;;9.53;65.51;102891.69;5387012;26;20050;-73
2024/04/12 02:01:11;;;;;;;24.00;9.63;;;;;;;9.64;65.28;102889.06;5376052;26;20015;-73
2024/04/12 02:03:37;;;;;;;20.27;10.07;;;;;;;9.70;65.21;102889.91;5398454;25;20390;-73
2024/04/12 02:06:05;;;;;;;19.60;8.68;;;;;;;9.65;65.56;102881.19;5374413;26;20601;-73
2024/04/12 02:08:32;;;;;;;21.38;9.48;;;;;;;9.90;64.77;102884.63;5386851;26;20885;-73
2024/04/12 02:11:05;;;;;;;24.08;9.27;;;;;;;9.35;66.53;102867.38;5368634;26;19999;-74
2024/04/12 02:13:35;;;;;;;18.85;8.70;;;;;;;9.70;65.53;102863.78;5407817;26;19995;-73
2024/04/12 02:16:05;;;;;;;18.42;7.85;;;;;;;9.37;66.35;102868.25;5379074;26;20511;-73
2024/04/12 02:18:34;;;;;;;23.95;9.02;;;;;;;9.90;64.56;102874.16;5395733;26;20010;-74
2024/04/12 02:21:05;;;;;;;25.60;9.48;;;;;;;9.71;65.56;102869.88;5384655;26;20937;-73
2024/04/12 02:23:34;;;;;;;19.88;8.10;;;;;;;9.80;65.16;102860.28;5373438;26;20003;-73
2024/04/12 02:26:04;;;;;;;21.25;8.88;;;;;;;9.06;67.75;102864.84;5370856;26;21138;-74
2024/04/12 02:28:30;;;;;;;17.88;7.70;;;;;;;9.77;65.35;102864.63;5348314;26;20009;-74
2024/04/12 02:30:57;;;;;;;17.13;7.82;;;;;;;9.53;66.28;102865.59;5368962;26;20003;-73
2024/04/12 02:33:30;;;;;;;23.08;8.90;;;;;;;9.78;65.35;102872.44;5376901;26;20056;-70
2024/04/12 02:36:11;;;;;;;18.10;8.00;;;;;;;9.62;66.06;102869.91;5366342;26;20022;-70
2024/04/12 02:38:41;;;;;;;21.38;8.20;;;;;;;9.51;65.82;102869.94;5375084;26;20466;-69
2024/04/12 02:41:14;;;;;;;20.10;8.60;;;;;;;9.73;65.05;102878.56;5377850;26;20046;-69
2024/04/12 02:43:41;;;;;;;16.90;7.45;;;;;;;9.84;65.34;102875.94;5379785;26;20019;-70
2024/04/12 02:46:06;;;;;;;16.88;7.55;;;;;;;9.94;64.84;102872.38;5361999;26;20014;-70
2024/04/12 02:48:33;;;;;;;19.55;9.40;;;;;;;10.10;64.35;102879.28;5379670;26;19995;-70
2024/04/12 02:51:06;;;;;;;22.85;8.52;;;;;;;9.79;65.29;102882.06;5371068;26;19999;-72
2024/04/12 02:53:36;;;;;;;17.77;8.88;;;;;;;9.82;65.13;102869.84;5381906;26;20000;-71
2024/04/12 02:56:15;;;;;;;20.75;7.97;;;;;;;10.27;63.92;102868.69;5377148;26;20007;-73
2024/04/12 02:58:44;;;;;;;17.95;8.70;;;;;;;10.22;63.92;102873.97;5379471;26;20448;-72
2024/04/12 03:01:18;;;;;;;21.23;8.15;;;;;;;10.25;64.05;102861.75;5376174;26;21003;-72
2024/04/12 03:03:49;;;;;;;25.30;8.45;;;;;;;9.85;65.28;102877.66;5389926;26;19994;-72
2024/04/12 03:06:22;;;;;;;19.45;8.57;;;;;;;9.96;64.95;102874.13;5369839;26;20006;-73
2024/04/12 03:08:51;;;;;;;20.10;9.27;;;;;;;9.47;67.29;102876.06;5390904;26;20010;-73
2024/04/12 03:11:33;;;;;;;19.75;8.57;;;;;;;9.72;66.13;102871.59;5393263;26;20049;-74
2024/04/12 03:14:09;;;;;;;21.10;9.05;;;;;;;9.24;67.42;102871.78;5361772;26;20905;-74
2024/04/12 03:16:37;;;;;;;21.38;9.57;;;;;;;9.70;66.74;102861.19;5385205;26;19994;-72
2024/04/12 03:19:07;;;;;;;23.40;8.75;;;;;;;9.90;65.68;102853.28;5385506;26;20004;-69
2024/04/12 03:21:34;;;;;;;28.27;10.15;;;;;;;10.00;65.69;102854.94;5387500;26;20824;-71
2024/04/12 03:24:01;;;;;;;25.02;10.02;;;;;;;9.74;66.26;102846.34;5385014;26;20053;-70
2024/04/12 03:26:27;;;;;;;23.90;10.07;;;;;;;9.66;65.97;102846.41;5380425;26;20837;-69
2024/04/12 03:28:59;;;;;;;27.05;9.18;;;;;;;10.06;65.29;102845.31;5387221;26;20146;-68
2024/04/12 03:31:26;;;;;;;24.05;8.65;;;;;;;9.63;66.14;102843.78;5389931;26;20010;-70
2024/04/12 03:33:55;;;;;;;28.13;9.30;;;;;;;10.03;65.28;102833.16;5386067;26;20014;-70
2024/04/12 03:36:39;;;;;;;21.67;9.20;;;;;;;9.84;65.65;102840.25;5358299;26;20007;-70
2024/04/12 03:41:56;;;;;;;24.73;10.90;;;;;;;10.24;64.53;102834.75;5398182;26;19999;-67
2024/04/12 03:44:30;;;;;;;20.08;10.20;;;;;;;10.15;65.08;102834.84;5363998;26;20002;-67
2024/04/12 03:47:02;;;;;;;22.98;9.80;;;;;;;10.34;64.39;102825.94;5383858;26;20072;-70
2024/04/12 03:49:30;;;;;;;23.17;9.45;;;;;;;10.15;64.73;102819.16;5386887;26;20536;-74
2024/04/12 03:51:56;;;;;;;24.05;9.77;;;;;;;10.14;64.98;102813.03;5386915;26;20002;-78
2024/04/12 03:54:24;;;;;;;25.15;10.43;;;;;;;10.13;64.88;102815.69;5391735;26;20003;-76
2024/04/12 03:56:52;;;;;;;26.33;9.82;;;;;;;10.22;64.83;102810.38;5389598;26;20531;-76
2024/04/12 03:59:25;;;;;;;27.90;11.35;;;;;;;10.08;65.16;102792.19;5399472;26;20003;-76
2024/04/12 04:01:54;;;;;;;29.83;12.30;;;;;;;9.93;65.41;102793.16;5391097;26;20031;-73
2024/04/12 04:04:25;;;;;;;27.48;11.73;;;;;;;9.83;65.39;102790.63;5388850;26;20010;-73
2024/04/12 04:06:54;;;;;;;26.63;11.60;;;;;;;9.88;65.82;102778.38;5388913;25;20185;-74
2024/04/12 04:09:21;;;;;;;31.52;11.85;;;;;;;10.14;64.93;102781.69;5391401;26;20025;-74
2024/04/12 04:11:53;;;;;;;28.17;11.30;;;;;;;10.37;64.01;102786.75;5396884;25;19998;-75
2024/04/12 04:14:20;;;;;;;30.95;13.77;;;;;;;10.10;64.90;102780.00;5393537;26;20057;-75
2024/04/12 04:16:51;;;;;;;30.30;13.23;;;;;;;10.28;64.61;102788.53;5394808;26;20003;-74
2024/04/12 04:19:39;;;;;;;26.15;11.95;;;;;;;9.86;65.06;102782.78;5394806;26;20080;-77
2024/04/12 04:22:49;;;;;;;32.83;12.27;;;;;;;10.07;65.00;102785.22;5373443;26;20002;-72
2024/04/12 04:25:10;;;;;;;28.73;12.52;;;;;;;9.88;64.91;102791.44;5379993;26;20081;-71
2024/04/12 04:27:37;;;;;;;30.75;14.15;;;;;;;9.90;65.03;102789.69;5419856;25;20019;-71
2024/04/12 04:30:05;;;;;;;30.67;13.18;;;;;;;10.03;64.74;102783.50;5389283;26;20529;-71
2024/04/12 04:32:31;;;;;;;29.98;12.98;;;;;;;10.02;64.56;102800.06;5374604;26;20015;-74
2024/04/12 04:35:05;;;;;;;30.75;12.45;;;;;;;9.79;64.68;102797.59;5361228;26;20002;-70
2024/04/12 04:37:37;;;;;;;34.67;13.52;;;;;;;9.74;65.22;102796.72;5407438;26;20006;-70
2024/04/12 04:40:09;;;;;;;27.25;13.38;;;;;;;10.04;64.44;102789.63;5354044;26;20003;-69
2024/04/12 04:42:38;;;;;;;33.80;13.38;;;;;;;9.91;65.14;102794.06;5389539;25;20035;-70
2024/04/12 04:45:07;;;;;;;30.63;13.20;;;;;;;10.12;64.22;102793.03;5382672;26;20728;-71
2024/04/12 04:47:34;;;;;;;32.75;13.82;;;;;;;9.98;64.72;102787.91;5376215;26;20023;-70
2024/04/12 04:50:00;;;;;;;27.55;12.60;;;;;;;10.38;63.46;102784.97;5352055;26;20003;-71
2024/04/12 04:52:35;;;;;;;28.55;12.60;;;;;;;10.29;63.95;102785.06;5371726;26;20010;-74
2024/04/12 04:55:02;;;;;;;35.97;13.48;;;;;;;10.46;63.31;102784.91;5381115;26;19999;-73
2024/04/12 04:57:29;;;;;;;31.42;13.05;;;;;;;10.57;63.33;102786.56;5394130;26;20004;-72
2024/04/12 05:00:06;;;;;;;27.48;13.57;;;;;;;10.47;62.93;102790.13;5390025;26;20011;-75
2024/04/12 05:02:35;;;;;;;28.42;13.25;;;;;;;10.52;63.30;102796.16;5393843;26;20038;-72
2024/04/12 05:05:04;;;;;;;30.20;14.52;;;;;;;10.08;64.03;102794.81;5391943;26;19991;-73
2024/04/12 05:07:34;;;;;;;27.77;12.98;;;;;;;10.47;63.41;102789.25;5391727;26;20434;-71
2024/04/12 05:10:11;;;;;;;27.63;13.38;;;;;;;10.59;62.70;102799.59;5358217;26;20003;-72
2024/04/12 05:12:40;;;;;;;28.25;12.82;;;;;;;10.59;62.81;102800.50;5363941;26;20003;-70
2024/04/12 05:18:03;;;;;;;26.65;12.88;;;;;;;10.09;64.46;102785.22;5340999;26;20018;-71
2024/04/12 05:20:42;;;;;;;31.60;14.00;;;;;;;10.13;64.76;102781.72;5354717;26;20019;-71
2024/04/12 05:23:12;;;;;;;28.08;12.80;;;;;;;10.09;64.71;102780.84;5344945;26;20212;-70
2024/04/12 05:25:40;;;;;;;29.23;14.20;;;;;;;10.04;64.28;102785.25;5363195;26;20016;-70
2024/04/12 05:28:06;;;;;;;26.48;12.10;;;;;;;10.25;63.97;102784.22;5352623;26;20008;-75
2024/04/12 05:30:42;;;;;;;25.80;11.75;;;;;;;10.04;64.52;102773.94;5356343;26;20016;-71
2024/04/12 05:33:11;;;;;;;26.23;12.02;;;;;;;9.72;65.74;102785.41;5347687;26;20829;-72
2024/04/12 05:35:37;;;;;;;23.30;11.85;;;;;;;9.84;64.62;102771.47;5380008;26;20000;-72
2024/04/12 05:38:09;;;;;;;23.55;11.45;;;;;;;10.37;63.31;102778.91;5345155;26;20037;-71
2024/04/12 05:40:45;;;;;;;22.50;11.23;;;;;;;9.90;64.87;102774.03;5352391;26;20534;-73
2024/04/12 05:43:15;;;;;;;21.15;10.70;;;;;;;9.93;64.49;102780.09;5350817;26;20087;-74
2024/04/12 05:45:41;;;;;;;23.65;10.45;;;;;;;10.45;63.18;102776.19;5354649;26;21478;-72
2024/04/12 05:48:13;;;;;;;21.52;11.00;;;;;;;10.63;62.41;102785.63;5352762;26;20358;-72
2024/04/12 05:50:46;;;;;;;16.67;9.88;;;;;;;10.76;62.10;102782.00;5359319;26;20020;-72
2024/04/12 05:53:12;;;;;;;17.65;9.60;;;;;;;10.71;61.92;102773.34;5326365;26;20072;-72
2024/04/12 05:55:44;;;;;;;15.20;8.60;;;;;;;10.95;61.45;102769.63;5353031;26;20015;-74
2024/04/12 05:58:14;;;;;;;16.80;8.55;;;;;;;10.39;62.85;102760.56;5333573;26;20054;-71
2024/04/12 06:00:41;;;;;;;17.80;9.25;;;;;;;10.46;62.87;102767.50;5353737;26;20745;-71
2024/04/12 06:03:14;;;;;;;20.63;9.95;;;;;;;10.61;62.44;102763.84;5354555;26;20003;-76
2024/04/12 06:05:46;;;;;;;17.17;9.15;;;;;;;10.71;62.36;102756.78;5366125;26;20004;-76
2024/04/12 06:08:12;;;;;;;20.00;9.65;;;;;;;10.69;62.44;102753.31;5365775;26;20002;-77
2024/04/12 06:10:39;;;;;;;19.65;9.43;;;;;;;10.76;61.70;102758.47;5372647;26;20365;-77
2024/04/12 06:13:07;;;;;;;20.42;10.93;;;;;;;10.82;61.91;102747.09;5360823;26;20009;-76
2024/04/12 06:15:36;;;;;;;21.27;10.82;;;;;;;10.69;61.84;102756.78;5356108;26;20031;-74
2024/04/12 06:18:12;;;;;;;18.27;10.18;;;;;;;10.79;61.97;102760.16;5348146;26;20421;-73
2024/04/12 06:20:39;;;;;;;27.25;11.40;;;;;;;10.76;62.80;102750.59;5352916;26;20007;-72
2024/04/12 06:23:11;;;;;;;20.80;10.93;;;;;;;11.11;61.89;102756.38;5361140;26;20485;-72
2024/04/12 06:25:43;;;;;;;21.42;10.70;;;;;;;10.54;62.93;102763.03;5353814;26;20014;-74
2024/04/12 06:28:13;;;;;;;20.20;10.20;;;;;;;10.61;62.50;102763.84;5331142;26;20008;-74
2024/04/12 06:30:48;;;;;;;22.92;10.77;;;;;;;10.90;61.97;102758.34;5359532;26;20018;-72
2024/04/12 06:33:20;;;;;;;22.70;11.55;;;;;;;10.81;62.50;102763.63;5350384;26;20476;-69
2024/04/12 06:35:46;;;;;;;;;;;;;;;10.82;62.30;102762.81;5356032;26;20007;-70
2024/04/12 06:38:22;;;;;;;30.73;11.10;;;;;;;10.92;61.60;102771.41;5366438;26;19931;-67
2024/04/12 06:41:25;;;;;;;19.52;9.90;;;;;;;10.81;61.59;102763.63;5348884;26;20402;-70
2024/04/12 06:43:45;;;;;;;17.40;9.35;;;;;;;11.25;60.71;102764.91;5355615;26;20011;-69
2024/04/12 06:46:13;;;;;;;23.45;10.98;;;;;;;11.17;60.75;102764.13;5339646;26;21197;-68
2024/04/12 06:48:42;;;;;;;18.23;10.40;;;;;;;10.65;62.43;102757.69;5359443;26;20826;-69
2024/04/12 06:51:11;;;;;;;18.90;10.77;;;;;;;10.93;61.60;102757.44;5346358;26;20500;-71
2024/04/12 06:53:44;;;;;;;18.50;10.25;;;;;;;11.18;60.55;102755.41;5356012;26;20020;-70
2024/04/12 06:56:15;;;;;;;18.73;9.45;;;;;;;10.73;61.64;102744.56;5343093;26;21482;-71
2024/04/12 06:58:43;;;;;;;18.45;10.02;;;;;;;10.14;63.00;102745.09;5355356;26;20951;-70
2024/04/12 07:01:10;;;;;;;21.48;11.02;;;;;;;10.18;63.88;102743.34;5346036;26;20031;-70
2024/04/12 07:03:37;;;;;;;16.65;9.32;;;;;;;10.34;62.63;102758.00;5358962;26;20039;-71
2024/04/12 07:06:03;;;;;;;19.55;9.45;;;;;;;10.18;63.33;102748.56;5300936;26;20004;-71
2024/04/12 07:08:29;;;;;;;15.63;8.85;;;;;;;10.32;63.22;102753.66;5356168;26;20008;-69
2024/04/12 07:10:56;;;;;;;17.65;7.53;;;;;;;10.27;63.34;102756.31;5351748;26;20031;-69
2024/04/12 07:13:27;;;;;;;11.15;6.53;;;;;;;10.54;62.88;102755.19;5347044;26;20533;-69
2024/04/12 07:15:55;;;;;;;11.23;6.78;;;;;;;10.62;62.38;102763.84;5353713;26;20032;-69
2024/04/12 07:18:22;;;;;;;11.57;6.20;;;;;;;10.91;61.72;102765.31;5348505;26;20012;-70
2024/04/12 07:20:52;;;;;;;13.55;6.25;;;;;;;10.25;63.57;102763.31;5352091;26;20004;-70
2024/04/12 07:23:17;;;;;;;10.13;6.35;;;;;;;9.98;64.34;102767.00;5349966;26;20017;-68
2024/04/12 07:25:47;;;;;;;12.60;7.47;;;;;;;10.37;63.88;102773.66;5352713;26;20018;-69
2024/04/12 07:28:14;;;;;;;15.50;7.53;;;;;;;9.92;65.02;102764.44;5342949;26;20018;-69
2024/04/12 07:30:45;;;;;;;9.15;5.20;;;;;;;10.33;63.39;102771.97;5357473;26;20009;-68
2024/04/12 07:33:12;;;;;;;;;;;;;;;10.36;63.87;102758.00;5338822;26;20003;-70
2024/04/12 07:35:48;;;;;;;11.85;4.00;;;;;;;10.04;65.00;102761.75;5351267;26;19925;-69
2024/04/12 07:38:14;;;;;;;9.75;4.35;;;;;;;10.26;64.24;102748.47;5343544;26;20018;-69
2024/04/12 07:40:43;;;;;;;7.38;4.45;;;;;;;10.28;64.31;102751.97;5358923;26;20450;-69
2024/04/12 07:43:09;;;;;;;8.30;4.43;;;;;;;10.09;64.73;102753.88;5343795;26;20004;-69
2024/04/12 07:45:38;;;;;;;9.75;3.67;;;;;;;10.62;63.01;102756.00;5355239;26;20056;-69
2024/04/12 07:50:47;;;;;;;6.78;3.53;;;;;;;10.04;64.69;102753.06;5356454;26;20034;-70
2024/04/12 07:53:25;;;;;;;10.05;3.78;;;;;;;9.98;65.32;102764.41;5351534;26;20003;-69
2024/04/12 07:56:00;;;;;;;8.38;4.20;;;;;;;9.59;65.73;102766.38;5352732;26;20019;-70
2024/04/12 07:58:28;;;;;;;8.18;4.60;;;;;;;10.24;64.62;102751.13;5351892;26;20015;-69
2024/04/12 08:01:09;;;;;;;8.25;3.72;;;;;;;9.91;65.42;102741.81;5353970;26;20008;-70
2024/04/12 08:04:05;;;;;;;8.02;4.25;;;;;;;10.22;65.51;102743.28;5367448;26;20042;-70
2024/04/12 08:06:37;;;;;;;6.05;3.95;;;;;;;10.10;64.88;102738.19;5302546;26;20000;-67
2024/04/12 08:09:21;;;;;;;8.75;4.28;;;;;;;9.91;66.03;102741.81;5358348;26;20464;-69
2024/04/12 08:11:58;;;;;;;8.10;3.42;;;;;;;9.70;66.56;102743.69;5359579;26;20025;-70
2024/04/12 08:14:26;;;;;;;5.70;3.47;;;;;;;10.35;64.04;102753.66;5347166;26;20035;-70
2024/04/12 08:16:54;;;;;;;8.85;3.95;;;;;;;10.48;64.06;102755.28;5353173;26;20051;-69
2024/04/12 08:19:23;;;;;;;9.73;4.22;;;;;;;10.82;62.91;102739.25;5336208;26;20007;-69
2024/04/12 08:21:54;;;;;;;6.95;3.38;;;;;;;10.80;63.29;102747.09;5355727;26;20600;-70
2024/04/12 08:24:22;;;;;;;9.88;4.90;;;;;;;10.42;63.75;102745.72;5344928;26;20007;-70
2024/04/12 08:26:52;;;;;;;5.63;3.30;;;;;;;10.79;63.01;102754.94;5362628;26;20806;-70
2024/04/12 08:29:29;;;;;;;7.85;3.88;;;;;;;10.74;63.41;102762.84;5347908;26;20015;-69
2024/04/12 08:34:44;;;;;;;12.35;4.78;;;;;;;10.62;63.22;102763.84;5355554;26;20219;-69
2024/04/12 08:37:13;;;;;;;6.50;4.35;;;;;;;10.97;62.37;102744.31;5349907;26;21758;-69
2024/04/12 08:39:52;;;;;;;7.03;3.60;;;;;;;11.03;62.92;102744.22;5357376;26;20011;-69
2024/04/12 08:42:18;;;;;;;12.75;4.43;;;;;;;11.02;62.78;102726.81;5324200;26;20020;-70
2024/04/12 08:44:44;;;;;;;7.63;4.00;;;;;;;10.57;63.27;102738.59;5352032;26;20019;-70
2024/04/12 08:50:03;;;;;;;9.45;4.78;;;;;;;10.52;63.91;102735.19;5355886;26;20836;-69
2024/04/12 08:52:47;;;;;;;10.05;5.22;;;;;;;10.01;65.75;102740.84;5356905;26;20055;-68
2024/04/12 08:55:15;;;;;;;11.40;5.22;;;;;;;10.07;65.77;102735.59;5327490;26;20019;-68
2024/04/12 08:57:41;;;;;;;8.18;4.47;;;;;;;10.73;63.78;102745.44;5350104;26;20007;-67
2024/04/12 09:00:21;;;;;;;11.93;5.95;;;;;;;11.05;63.05;102731.13;5358207;26;20008;-67
2024/04/12 09:02:58;;;;;;;14.80;5.88;;;;;;;11.05;62.83;102721.53;5367057;26;20007;-67
2024/04/12 09:05:25;;;;;;;12.25;5.57;;;;;;;11.44;62.13;102728.84;5322401;26;20006;-71
2024/04/12 09:07:58;;;;;;;9.73;5.50;;;;;;;11.37;61.08;102707.13;5352987;26;20034;-70
2024/04/12 09:10:27;;;;;;;11.48;5.75;;;;;;;12.20;60.46;102718.97;5350843;26;20020;-70
2024/04/12 09:12:54;;;;;;;12.88;6.97;;;;;;;12.15;60.07;102723.41;5361151;26;20069;-70
2024/04/12 09:15:27;;;;;;;11.13;6.50;;;;;;;12.17;59.27;102726.88;5345976;26;20026;-70
2024/04/12 09:18:13;;;;;;;10.68;6.32;;;;;;;12.38;58.71;102719.50;5353687;26;19996;-70
2024/04/12 09:20:39;;;;;;;12.18;5.85;;;;;;;12.66;58.12;102720.72;5359109;26;20003;-70
2024/04/12 09:23:15;;;;;;;14.90;5.78;;;;;;;12.31;58.07;102718.75;5347524;26;20043;-69
2024/04/12 09:25:54;;;;;;;9.43;5.65;;;;;;;12.55;57.68;102717.44;5359566;26;20048;-70
2024/04/12 09:28:32;;;;;;;9.23;5.90;;;;;;;12.02;58.97;102727.13;5345521;26;20489;-69
2024/04/12 09:33:56;;;;;;;9.95;5.40;;;;;;;12.35;57.71;102732.69;5347002;26;20062;-69
2024/04/12 09:36:52;;;;;;;13.48;6.28;;;;;;;12.77;57.17;102717.06;5339731;26;20005;-69
2024/04/12 09:39:20;;;;;;;9.95;4.38;;;;;;;12.65;56.63;102703.28;5348529;26;20027;-70
2024/04/12 09:41:53;;;;;;;9.20;5.43;;;;;;;12.77;56.48;102709.19;5360735;26;20981;-69
2024/04/12 09:44:38;;;;;;;12.57;5.63;;;;;;;13.51;53.95;102706.69;5384517;26;19999;-68
2024/04/12 10:37:30;;;;;;;4.13;2.53;;;;;;;15.61;43.19;102687.81;5391008;26;20017;-69
2024/04/12 10:39:57;;;;;;;4.07;2.20;;;;;;;15.56;41.81;102674.78;5385146;26;20043;-69
2024/04/12 10:42:25;;;;;;;4.35;2.17;;;;;;;16.16;40.51;102667.50;5377389;26;20002;-69
2024/04/12 10:44:59;;;;;;;4.60;2.17;;;;;;;16.55;38.16;102662.56;5390790;26;20006;-69
2024/04/12 10:47:27;;;;;;;5.38;1.92;;;;;;;16.78;37.78;102658.25;5379773;26;20126;-69
2024/04/12 10:49:56;;;;;;;2.83;1.23;;;;;;;17.70;37.52;102664.28;5386860;26;20084;-69
2024/04/12 10:52:30;;;;;;;3.72;1.73;;;;;;;17.48;36.57;102659.88;5376430;26;20036;-70
2024/04/12 10:54:56;;;;;;;4.38;1.80;;;;;;;16.96;36.65;102669.88;5378586;26;19999;-69
2024/04/12 10:57:27;;;;;;;4.05;1.75;;;;;;;16.53;37.63;102676.72;5350912;26;20783;-69
2024/04/12 10:59:54;;;;;;;4.15;2.10;;;;;;;16.37;37.73;102676.44;5355867;26;20017;-70
2024/04/12 11:02:22;;;;;;;3.88;2.05;;;;;;;17.42;35.62;102670.66;5346971;26;20879;-70
2024/04/12 11:05:24;;;;;;;5.35;2.50;;;;;;;16.63;37.16;102681.63;5348197;26;20004;-70
2024/04/12 11:07:52;;;;;;;4.65;1.92;;;;;;;17.19;37.67;102668.97;5369178;26;20018;-71
2024/04/12 11:10:25;;;;;;;2.95;2.20;;;;;;;16.89;36.49;102678.94;5387831;26;20003;-71
2024/04/12 11:12:59;;;;;;;3.20;1.52;;;;;;;16.35;37.22;102673.88;5384155;26;20011;-70
2024/04/12 11:31:39;;;;;;;7.25;2.15;;;;;;;16.39;36.04;102661.41;5380527;25;20082;-70
2024/04/12 11:34:06;;;;;;;4.07;1.58;;;;;;;16.07;36.23;102657.28;5387115;26;20095;-69
2024/04/12 11:36:39;;;;;;;5.60;2.15;;;;;;;17.63;35.33;102647.81;5366146;26;21939;-69
2024/04/12 11:39:18;;;;;;;7.07;1.50;;;;;;;17.82;33.76;102647.88;5392753;26;20011;-68
2024/04/12 11:41:47;;;;;;;4.20;1.58;;;;;;;17.20;32.98;102658.34;5371511;26;20392;-69
2024/04/12 11:44:18;;;;;;;2.88;1.30;;;;;;;17.61;32.56;102642.59;5385354;26;20003;-69
2024/04/12 11:46:45;;;;;;;3.67;1.17;;;;;;;17.65;33.13;102649.47;5375301;26;21423;-69
2024/04/12 11:49:24;;;;;;;5.05;1.25;;;;;;;17.69;32.72;102642.25;5385804;26;20004;-68
2024/04/12 11:52:02;;;;;;;4.28;1.23;;;;;;;17.75;33.58;102643.78;5389579;26;21997;-68
2024/04/12 11:54:29;;;;;;;2.25;0.95;;;;;;;17.53;33.72;102644.69;5385215;26;20004;-69
2024/04/12 11:57:01;;;;;;;3.33;1.00;;;;;;;18.84;31.77;102646.88;5393620;25;20943;-68
2024/04/12 11:59:29;;;;;;;2.40;0.90;;;;;;;18.39;31.99;102648.94;5388331;26;20038;-68
2024/04/12 12:01:59;;;;;;;4.90;1.52;;;;;;;17.30;32.79;102650.03;5389130;26;20003;-68
2024/04/12 12:04:34;;;;;;;5.35;1.60;;;;;;;17.03;32.17;102650.22;5383564;26;20006;-68
2024/04/12 12:07:04;;;;;;;5.47;1.48;;;;;;;17.14;31.16;102658.59;5389179;26;20053;-70
2024/04/12 12:09:36;;;;;;;2.85;1.30;;;;;;;17.02;31.71;102645.84;5376535;26;20014;-69
2024/04/12 12:12:03;;;;;;;7.55;1.50;;;;;;;16.78;32.38;102650.31;5389525;26;20021;-68
2024/04/12 12:14:33;;;;;;;3.50;1.27;;;;;;;16.98;32.18;102663.63;5374171;26;20029;-69
2024/04/12 12:16:59;;;;;;;8.25;1.42;;;;;;;17.62;31.94;102660.16;5385182;26;20002;-68
2024/04/12 12:19:25;;;;;;;4.18;1.83;;;;;;;17.65;31.80;102675.91;5384400;26;20016;-69
2024/04/12 12:21:51;;;;;;;6.13;2.20;;;;;;;16.91;31.97;102663.91;5373594;26;20025;-69
2024/04/12 12:24:16;;;;;;;6.32;1.38;;;;;;;16.85;33.14;102666.78;5388220;26;20029;-69
2024/04/12 12:26:42;;;;;;;3.30;1.98;;;;;;;16.73;33.17;102666.31;5348636;26;20088;-68
2024/04/12 12:29:08;;;;;;;3.70;1.30;;;;;;;17.98;33.08;102650.72;5393810;26;20003;-68
2024/04/12 12:31:33;;;;;;;3.95;1.83;;;;;;;17.78;33.26;102655.13;5373196;26;20037;-68
2024/04/12 12:33:59;;;;;;;6.38;1.92;;;;;;;18.09;33.00;102656.41;5394480;26;20014;-69
2024/04/12 12:36:27;;;;;;;7.53;1.67;;;;;;;16.96;32.96;102664.59;5379228;26;20009;-69
2024/04/12 12:38:54;;;;;;;3.92;1.27;;;;;;;17.38;32.62;102662.03;5360016;26;20007;-69
2024/04/12 12:41:20;;;;;;;3.92;0.90;;;;;;;18.02;31.57;102658.47;5354803;26;20018;-69
2024/04/12 12:43:47;;;;;;;4.13;1.38;;;;;;;17.11;32.35;102656.03;5407120;26;20010;-69
2024/04/12 12:46:14;;;;;;;4.43;1.50;;;;;;;17.52;31.99;102658.84;5387568;26;20007;-68
2024/04/12 12:48:40;;;;;;;4.45;1.50;;;;;;;17.38;33.02;102653.22;5344025;26;20015;-69
2024/04/12 12:51:09;;;;;;;10.55;1.88;;;;;;;17.39;33.00;102657.59;5356205;26;20709;-69
2024/04/12 12:53:36;;;;;;;8.02;1.73;;;;;;;18.11;32.41;102651.06;5338564;26;20010;-68
2024/04/12 12:56:03;;;;;;;9.32;2.17;;;;;;;16.70;33.88;102661.13;5350593;26;20018;-69
2024/04/12 12:58:29;;;;;;;6.00;1.48;;;;;;;18.09;32.46;102658.19;5367484;25;20012;-68
2024/04/12 13:01:00;;;;;;;9.73;2.05;;;;;;;18.41;30.99;102660.31;5389354;26;21168;-69